Time;durP1;ratioP1;P1;durP2;ratioP2;P2;SDS_P1;SDS_P2;PMS_P1;PMS_P2;Temp;Humidity;BMP_temperature;BMP_pressure;BME280_temperature;BME280_humidity;BME280_pressure;Samples;Min_cycle;Max_cycle;Signal;HPM_P1;HPM_P2
2022/07/29 00:00:52;;;;;;;0.35;0.35;;;16.00;99.90;;;;;;5043746;28;20041;-74
2022/07/29 00:03:18;;;;;;;1.05;0.40;;;15.90;99.90;;;;;;5043273;28;20056;-74
2022/07/29 00:05:43;;;;;;;0.40;0.40;;;15.90;99.90;;;;;;5044624;28;20048;-76
2022/07/29 00:08:09;;;;;;;0.73;0.50;;;15.90;99.90;;;;;;5044390;28;20056;-74
2022/07/29 00:10:35;;;;;;;2.30;0.82;;;15.90;99.90;;;;;;5026880;28;20423;-73
2022/07/29 00:13:01;;;;;;;1.58;0.55;;;15.90;99.90;;;;;;5052297;28;20509;-73
2022/07/29 00:15:27;;;;;;;0.28;0.28;;;15.90;99.90;;;;;;5043515;28;20048;-74
2022/07/29 00:17:53;;;;;;;2.47;0.40;;;15.90;99.90;;;;;;5044261;28;20052;-74
2022/07/29 00:20:18;;;;;;;2.15;0.65;;;15.90;99.90;;;;;;5026497;28;20045;-73
2022/07/29 00:22:44;;;;;;;0.55;0.55;;;15.90;99.90;;;;;;5043034;28;20555;-74
2022/07/29 00:25:11;;;;;;;0.40;0.40;;;15.90;99.90;;;;;;5043661;28;20049;-73
2022/07/29 00:27:37;;;;;;;1.23;0.25;;;15.90;99.90;;;;;;5043956;28;20044;-73
2022/07/29 00:30:04;;;;;;;0.20;0.20;;;15.90;99.90;;;;;;5044058;28;20033;-73
2022/07/29 00:32:29;;;;;;;0.30;0.30;;;15.90;99.90;;;;;;5044423;28;20589;-73
2022/07/29 00:37:39;;;;;;;0.47;0.40;;;15.90;99.90;;;;;;5043791;28;20051;-73
2022/07/29 00:40:06;;;;;;;0.30;0.30;;;15.90;99.90;;;;;;5043636;28;20392;-73
2022/07/29 00:42:41;;;;;;;1.23;0.25;;;15.80;99.90;;;;;;5044499;28;20037;-74
2022/07/29 00:45:07;;;;;;;0.95;0.93;;;15.80;99.90;;;;;;5043404;28;20048;-73
2022/07/29 00:47:33;;;;;;;1.05;0.55;;;15.80;99.90;;;;;;5044061;28;20153;-74
2022/07/29 00:49:59;;;;;;;0.20;0.20;;;15.80;99.90;;;;;;5044227;28;20568;-73
2022/07/29 00:52:24;;;;;;;0.30;0.30;;;15.80;99.90;;;;;;5042280;28;20722;-74
2022/07/29 00:54:50;;;;;;;0.68;0.68;;;15.80;99.90;;;;;;5044077;28;20045;-74
2022/07/29 00:57:16;;;;;;;1.88;0.68;;;15.80;99.90;;;;;;5042730;28;20407;-74
2022/07/29 00:59:41;;;;;;;0.73;0.70;;;15.80;99.90;;;;;;5042635;28;20531;-73
2022/07/29 01:02:07;;;;;;;2.13;0.47;;;15.80;99.90;;;;;;5043567;28;20462;-73
2022/07/29 01:04:33;;;;;;;0.63;0.50;;;15.80;99.90;;;;;;5044677;28;20107;-73
2022/07/29 01:07:01;;;;;;;0.28;0.28;;;15.80;99.90;;;;;;5042145;28;20057;-73
2022/07/29 01:09:27;;;;;;;0.40;0.40;;;15.70;99.90;;;;;;5039578;28;20434;-73
2022/07/29 01:11:54;;;;;;;1.20;0.30;;;15.70;99.90;;;;;;5033699;23;20175;-74
2022/07/29 01:14:21;;;;;;;0.30;0.30;;;15.70;99.90;;;;;;5039820;28;20052;-72
2022/07/29 01:17:09;;;;;;;1.42;0.57;;;15.70;99.90;;;;;;5041864;28;20530;-73
2022/07/29 01:19:50;;;;;;;0.50;0.50;;;15.80;99.90;;;;;;5007831;28;20064;-74
2022/07/29 01:22:33;;;;;;;0.50;0.50;;;15.80;99.90;;;;;;5040652;28;20041;-75
2022/07/29 01:25:20;;;;;;;0.47;0.40;;;15.70;99.90;;;;;;5033412;28;20048;-73
2022/07/29 01:28:00;;;;;;;0.55;0.55;;;15.70;99.90;;;;;;5042052;28;20099;-74
2022/07/29 01:30:28;;;;;;;1.10;0.45;;;15.80;99.90;;;;;;5054337;28;20478;-73
2022/07/29 01:33:01;;;;;;;0.47;0.43;;;15.70;99.90;;;;;;5041521;28;20049;-73
2022/07/29 01:35:36;;;;;;;0.43;0.43;;;15.70;99.90;;;;;;5056920;28;20056;-73
2022/07/29 01:38:09;;;;;;;0.45;0.45;;;15.70;99.90;;;;;;5023153;28;20103;-73
2022/07/29 01:40:46;;;;;;;0.38;0.38;;;15.70;99.90;;;;;;5042091;28;20041;-73
2022/07/29 01:43:18;;;;;;;1.65;0.50;;;15.70;99.90;;;;;;5041805;28;20040;-73
2022/07/29 01:46:04;;;;;;;1.63;0.50;;;15.70;99.90;;;;;;5023094;28;20048;-74
2022/07/29 01:48:48;;;;;;;4.28;0.40;;;15.70;99.90;;;;;;5040375;28;20044;-73
2022/07/29 01:51:35;;;;;;;0.65;0.65;;;15.70;99.90;;;;;;5041729;28;20036;-74
2022/07/29 01:54:10;;;;;;;0.40;0.40;;;15.70;99.90;;;;;;5022255;28;20119;-73
2022/07/29 01:56:38;;;;;;;1.33;0.60;;;15.70;99.90;;;;;;5041885;28;20066;-73
2022/07/29 01:59:07;;;;;;;0.70;0.55;;;15.70;99.90;;;;;;5041264;28;20060;-73
2022/07/29 02:01:34;;;;;;;0.30;0.30;;;15.70;99.90;;;;;;5041675;28;20077;-72
2022/07/29 02:04:04;;;;;;;0.40;0.38;;;15.70;99.90;;;;;;5023230;28;20120;-73
2022/07/29 02:06:32;;;;;;;0.65;0.65;;;15.70;99.90;;;;;;5040801;28;20119;-72
2022/07/29 02:09:00;;;;;;;0.95;0.70;;;15.70;99.90;;;;;;5040170;28;20478;-73
2022/07/29 02:11:27;;;;;;;0.85;0.65;;;15.70;99.90;;;;;;5040819;28;20061;-73
2022/07/29 02:13:56;;;;;;;1.42;0.60;;;15.70;99.90;;;;;;5040804;28;20483;-73
2022/07/29 02:16:24;;;;;;;0.55;0.55;;;15.70;99.90;;;;;;5029936;28;20067;-73
2022/07/29 02:18:53;;;;;;;0.60;0.60;;;15.70;99.90;;;;;;5023187;28;20049;-73
2022/07/29 02:21:23;;;;;;;1.50;0.60;;;15.70;99.90;;;;;;5025485;28;20037;-73
2022/07/29 02:23:52;;;;;;;0.50;0.50;;;15.70;99.90;;;;;;5040205;28;20041;-73
2022/07/29 02:26:20;;;;;;;2.13;0.70;;;15.70;99.90;;;;;;5041236;28;20120;-73
2022/07/29 02:28:47;;;;;;;1.05;0.70;;;15.80;99.90;;;;;;5022684;28;20045;-74
2022/07/29 02:31:13;;;;;;;0.57;0.55;;;15.70;99.90;;;;;;5040948;28;20243;-73
2022/07/29 02:33:41;;;;;;;0.85;0.50;;;15.80;99.90;;;;;;5006893;28;20128;-73
2022/07/29 02:36:07;;;;;;;0.75;0.70;;;15.80;99.90;;;;;;5040299;28;20094;-73
2022/07/29 02:38:50;;;;;;;0.60;0.60;;;15.80;99.90;;;;;;5039876;28;20071;-73
2022/07/29 02:41:23;;;;;;;0.47;0.40;;;15.80;99.90;;;;;;5023130;28;20064;-73
2022/07/29 02:43:56;;;;;;;2.35;0.75;;;15.80;99.90;;;;;;5040160;28;20073;-73
2022/07/29 02:46:33;;;;;;;0.70;0.43;;;15.80;99.90;;;;;;5022553;28;20487;-73
2022/07/29 02:49:25;;;;;;;0.93;0.77;;;15.80;99.90;;;;;;5021898;28;20055;-73
2022/07/29 02:52:02;;;;;;;0.80;0.57;;;15.70;99.90;;;;;;5002793;28;20053;-73
2022/07/29 02:54:49;;;;;;;0.85;0.63;;;15.70;99.90;;;;;;5040450;28;20064;-73
2022/07/29 02:57:34;;;;;;;0.60;0.60;;;15.70;99.90;;;;;;5022369;28;20053;-74
2022/07/29 03:00:05;;;;;;;0.70;0.50;;;15.70;99.90;;;;;;5039847;28;20040;-73
2022/07/29 03:02:35;;;;;;;1.80;0.68;;;15.70;99.90;;;;;;5039657;28;20040;-73
2022/07/29 03:05:02;;;;;;;0.90;0.90;;;15.70;99.90;;;;;;5039733;28;20043;-73
2022/07/29 03:07:29;;;;;;;0.65;0.65;;;15.70;99.90;;;;;;5021443;28;20053;-73
2022/07/29 03:09:56;;;;;;;18.77;1.20;;;15.70;99.90;;;;;;5054803;28;20041;-73
2022/07/29 03:12:23;;;;;;;1.00;0.55;;;15.70;99.90;;;;;;5040284;28;20139;-73
2022/07/29 03:14:49;;;;;;;0.60;0.60;;;15.70;99.90;;;;;;5025311;28;20059;-73
2022/07/29 03:17:16;;;;;;;0.73;0.52;;;15.70;99.90;;;;;;5039492;28;20136;-74
2022/07/29 03:19:42;;;;;;;0.50;0.50;;;15.60;99.90;;;;;;5023005;28;20079;-74
2022/07/29 03:22:08;;;;;;;0.50;0.50;;;15.70;99.90;;;;;;5038223;28;20048;-74
2022/07/29 03:24:36;;;;;;;0.30;0.30;;;15.60;99.90;;;;;;5040031;28;20129;-73
2022/07/29 03:27:03;;;;;;;1.15;0.70;;;15.60;99.90;;;;;;5039696;28;20052;-73
2022/07/29 03:29:29;;;;;;;0.77;0.75;;;15.60;99.90;;;;;;5039802;28;20029;-73
2022/07/29 03:31:55;;;;;;;1.00;0.70;;;15.60;99.90;;;;;;5054906;28;20051;-74
2022/07/29 03:34:21;;;;;;;1.08;0.50;;;15.60;99.90;;;;;;5021615;28;20044;-74
2022/07/29 03:36:47;;;;;;;1.55;1.35;;;15.60;99.90;;;;;;5054567;28;20431;-74
2022/07/29 03:39:17;;;;;;;0.52;0.43;;;15.70;99.90;;;;;;5038559;28;20033;-74
2022/07/29 03:41:45;;;;;;;1.13;0.47;;;15.60;99.90;;;;;;5039671;28;20045;-74
2022/07/29 03:44:13;;;;;;;1.45;0.40;;;15.60;99.90;;;;;;5055335;28;20045;-73
2022/07/29 03:46:41;;;;;;;0.68;0.52;;;15.60;99.90;;;;;;5040106;28;20045;-74
2022/07/29 03:49:08;;;;;;;1.00;0.57;;;15.60;99.90;;;;;;5038946;28;20051;-74
2022/07/29 03:51:34;;;;;;;1.20;1.00;;;15.60;99.90;;;;;;5039764;28;20052;-74
2022/07/29 03:54:04;;;;;;;1.13;0.68;;;15.60;99.90;;;;;;5038943;28;20076;-74
2022/07/29 03:56:32;;;;;;;1.15;0.50;;;15.60;99.90;;;;;;5039456;28;20047;-74
2022/07/29 03:58:58;;;;;;;2.10;0.73;;;15.60;99.90;;;;;;5038834;28;20487;-74
2022/07/29 04:01:25;;;;;;;0.47;0.40;;;15.60;99.90;;;;;;5054368;28;20548;-74
2022/07/29 04:03:51;;;;;;;0.40;0.40;;;15.60;99.90;;;;;;5053582;28;20398;-74
2022/07/29 04:06:16;;;;;;;0.95;0.52;;;15.60;99.90;;;;;;5058613;28;20032;-74
2022/07/29 04:08:42;;;;;;;1.38;0.65;;;15.60;99.90;;;;;;5038710;28;20132;-74
2022/07/29 04:11:07;;;;;;;0.52;0.52;;;15.60;99.90;;;;;;5038982;28;20174;-74
2022/07/29 04:13:33;;;;;;;0.47;0.30;;;15.60;99.90;;;;;;5039342;28;20057;-73
2022/07/29 04:15:59;;;;;;;0.73;0.40;;;15.60;99.90;;;;;;5038662;28;20399;-74
2022/07/29 04:18:25;;;;;;;0.47;0.47;;;15.60;99.90;;;;;;5054306;28;20049;-74
2022/07/29 04:20:50;;;;;;;0.80;0.80;;;15.60;99.90;;;;;;5004743;28;20523;-74
2022/07/29 04:23:16;;;;;;;1.40;0.70;;;15.60;99.90;;;;;;5038359;28;20174;-74
2022/07/29 04:25:42;;;;;;;1.02;0.75;;;15.60;99.90;;;;;;5039388;28;20037;-74
2022/07/29 04:28:09;;;;;;;0.73;0.50;;;15.60;99.90;;;;;;5038143;28;20049;-73
2022/07/29 04:30:36;;;;;;;1.50;0.50;;;15.60;99.90;;;;;;5039181;28;20523;-73
2022/07/29 04:33:03;;;;;;;0.65;0.50;;;15.60;99.90;;;;;;5038906;28;20051;-74
2022/07/29 04:35:29;;;;;;;0.73;0.63;;;15.60;99.90;;;;;;5005494;28;20489;-73
2022/07/29 04:37:55;;;;;;;4.07;0.60;;;15.60;99.90;;;;;;5038046;28;20051;-74
2022/07/29 04:40:21;;;;;;;1.27;0.93;;;15.60;99.90;;;;;;5038922;28;20480;-74
2022/07/29 04:42:46;;;;;;;2.13;1.48;;;15.60;99.90;;;;;;5040599;28;20041;-74
2022/07/29 04:45:12;;;;;;;0.90;0.43;;;15.60;99.90;;;;;;5043318;28;20051;-74
2022/07/29 04:47:38;;;;;;;0.55;0.55;;;15.60;99.90;;;;;;5043242;28;20041;-74
2022/07/29 04:50:05;;;;;;;1.38;1.27;;;15.60;99.90;;;;;;5042318;28;20045;-74
2022/07/29 04:52:31;;;;;;;1.00;0.40;;;15.60;99.90;;;;;;5034697;28;20040;-73
2022/07/29 04:54:56;;;;;;;1.23;0.60;;;15.60;99.90;;;;;;5042215;28;20505;-74
2022/07/29 04:57:22;;;;;;;0.60;0.60;;;15.60;99.90;;;;;;5024605;28;20051;-74
2022/07/29 04:59:48;;;;;;;1.08;1.00;;;15.60;99.90;;;;;;5024293;28;20380;-74
2022/07/29 05:02:14;;;;;;;0.55;0.55;;;15.60;99.90;;;;;;5042601;28;20064;-75
2022/07/29 05:04:39;;;;;;;3.50;1.30;;;15.60;99.90;;;;;;5042890;28;20045;-74
2022/07/29 05:07:05;;;;;;;0.98;0.60;;;15.60;99.90;;;;;;5040473;28;20491;-74
2022/07/29 05:09:32;;;;;;;0.88;0.80;;;15.60;99.90;;;;;;5059092;28;20052;-74
2022/07/29 05:11:57;;;;;;;7.53;0.60;;;15.60;99.90;;;;;;5041997;28;20126;-74
2022/07/29 05:14:23;;;;;;;1.35;1.00;;;15.60;99.90;;;;;;5042806;28;20461;-74
2022/07/29 05:16:50;;;;;;;0.70;0.52;;;15.60;99.90;;;;;;5041606;28;20045;-74
2022/07/29 05:19:16;;;;;;;3.30;0.68;;;15.60;99.90;;;;;;5041760;28;20076;-74
2022/07/29 05:21:42;;;;;;;0.45;0.45;;;15.60;99.90;;;;;;5048202;28;20088;-74
2022/07/29 05:24:08;;;;;;;2.15;0.30;;;15.70;99.90;;;;;;5052452;28;20049;-74
2022/07/29 05:26:33;;;;;;;1.95;0.60;;;15.70;99.90;;;;;;5041620;28;20542;-74
2022/07/29 05:28:59;;;;;;;0.82;0.75;;;15.70;99.90;;;;;;5041559;28;20056;-73
2022/07/29 05:31:24;;;;;;;0.50;0.50;;;15.70;99.90;;;;;;5041330;28;20044;-74
2022/07/29 05:33:50;;;;;;;0.65;0.65;;;15.70;99.90;;;;;;5041329;28;20040;-74
2022/07/29 05:36:16;;;;;;;1.83;0.80;;;15.80;99.90;;;;;;5024366;28;20513;-74
2022/07/29 05:38:41;;;;;;;0.98;0.50;;;15.80;99.90;;;;;;5041540;28;20041;-74
2022/07/29 05:41:07;;;;;;;0.40;0.25;;;15.80;99.90;;;;;;5040870;28;20132;-74
2022/07/29 05:43:32;;;;;;;0.73;0.70;;;15.80;99.90;;;;;;5041643;28;20067;-74
2022/07/29 05:45:58;;;;;;;1.70;0.57;;;15.80;99.90;;;;;;5043413;28;20659;-74
2022/07/29 05:48:24;;;;;;;0.82;0.73;;;15.80;99.90;;;;;;5061728;28;20060;-73
2022/07/29 05:50:49;;;;;;;1.35;0.80;;;15.90;99.90;;;;;;5061734;28;20475;-74
2022/07/29 05:53:16;;;;;;;0.65;0.60;;;15.90;99.90;;;;;;5040141;28;20032;-74
2022/07/29 05:55:41;;;;;;;0.90;0.55;;;15.90;99.90;;;;;;5041375;28;20037;-74
2022/07/29 05:58:07;;;;;;;2.08;0.82;;;16.00;99.90;;;;;;5041390;28;20051;-73
2022/07/29 06:00:32;;;;;;;2.00;1.00;;;16.00;99.90;;;;;;5041238;28;20395;-74
2022/07/29 06:02:58;;;;;;;0.65;0.55;;;16.10;99.90;;;;;;5056805;28;20599;-74
2022/07/29 06:05:23;;;;;;;1.75;1.25;;;16.10;99.90;;;;;;5022674;28;20049;-74
2022/07/29 06:07:49;;;;;;;0.90;0.65;;;16.10;99.90;;;;;;5039934;28;20068;-74
2022/07/29 06:10:15;;;;;;;0.40;0.40;;;16.20;99.90;;;;;;5040974;28;20059;-74
2022/07/29 06:12:40;;;;;;;1.00;0.50;;;16.20;99.90;;;;;;5040865;28;20047;-73
2022/07/29 06:15:06;;;;;;;0.63;0.63;;;16.30;99.90;;;;;;5041126;28;20040;-74
2022/07/29 06:17:32;;;;;;;0.93;0.52;;;16.40;99.90;;;;;;5041131;28;20067;-74
2022/07/29 06:19:57;;;;;;;1.80;1.20;;;16.40;99.90;;;;;;5039184;28;20479;-74
2022/07/29 06:22:23;;;;;;;1.75;1.05;;;16.50;99.90;;;;;;5039507;28;20037;-74
2022/07/29 06:24:49;;;;;;;0.73;0.32;;;16.50;99.90;;;;;;5040399;28;20040;-74
2022/07/29 06:27:16;;;;;;;2.00;0.75;;;16.50;99.90;;;;;;5041090;28;20120;-74
2022/07/29 06:29:41;;;;;;;0.90;0.55;;;16.60;99.90;;;;;;5040569;28;20045;-73
2022/07/29 06:32:08;;;;;;;3.17;0.80;;;16.60;99.90;;;;;;5022702;28;20614;-74
2022/07/29 06:34:35;;;;;;;1.67;1.00;;;16.60;99.90;;;;;;5038251;28;20095;-74
2022/07/29 06:37:05;;;;;;;0.60;0.60;;;16.70;99.90;;;;;;5013207;28;20048;-75
2022/07/29 06:39:30;;;;;;;1.02;0.50;;;16.70;99.90;;;;;;5032426;28;20128;-74
2022/07/29 06:41:56;;;;;;;4.47;0.90;;;16.70;99.90;;;;;;5044867;28;20140;-73
2022/07/29 06:44:21;;;;;;;3.13;0.95;;;16.70;99.90;;;;;;5027264;28;20052;-74
2022/07/29 06:46:49;;;;;;;2.08;1.05;;;16.80;99.90;;;;;;5035496;28;20064;-73
2022/07/29 06:49:15;;;;;;;1.75;1.08;;;16.80;99.90;;;;;;5026315;28;20045;-73
2022/07/29 06:51:41;;;;;;;1.92;1.42;;;16.80;99.90;;;;;;5035846;28;20053;-73
2022/07/29 06:54:07;;;;;;;1.50;0.73;;;16.90;99.90;;;;;;5040430;28;20037;-73
2022/07/29 06:56:36;;;;;;;1.75;0.70;;;16.90;99.90;;;;;;5040436;28;20041;-73
2022/07/29 06:59:02;;;;;;;0.30;0.30;;;17.00;99.90;;;;;;5041245;28;20049;-74
2022/07/29 07:01:28;;;;;;;1.17;0.80;;;17.00;99.90;;;;;;5060057;28;20514;-73
2022/07/29 07:03:54;;;;;;;1.00;0.65;;;17.10;99.90;;;;;;5032164;28;20102;-73
2022/07/29 07:06:19;;;;;;;0.80;0.60;;;17.20;99.90;;;;;;5036601;28;20037;-74
2022/07/29 07:08:45;;;;;;;0.93;0.70;;;17.20;99.90;;;;;;5039609;28;20084;-73
2022/07/29 07:11:11;;;;;;;1.27;0.82;;;17.20;99.90;;;;;;5037763;28;20057;-73
2022/07/29 07:13:36;;;;;;;0.95;0.60;;;17.30;99.90;;;;;;5031364;28;20057;-73
2022/07/29 07:16:03;;;;;;;1.13;1.05;;;17.30;99.90;;;;;;5039388;28;20047;-73
2022/07/29 07:18:29;;;;;;;10.60;2.05;;;17.30;99.90;;;;;;5029890;28;20056;-75
2022/07/29 07:20:56;;;;;;;1.30;0.80;;;17.40;99.90;;;;;;5021333;28;20044;-75
2022/07/29 07:23:21;;;;;;;0.60;0.60;;;17.40;99.90;;;;;;5020894;28;20762;-73
2022/07/29 07:25:47;;;;;;;1.90;0.93;;;17.50;99.90;;;;;;5038710;28;20052;-73
2022/07/29 07:28:12;;;;;;;1.13;0.80;;;17.50;99.90;;;;;;5055745;28;20033;-72
2022/07/29 07:30:39;;;;;;;1.35;0.90;;;17.60;99.90;;;;;;5037920;28;20045;-69
2022/07/29 07:33:04;;;;;;;1.17;0.77;;;17.60;99.90;;;;;;5051968;28;20576;-72
2022/07/29 07:35:30;;;;;;;1.10;0.70;;;17.60;99.90;;;;;;5038868;28;20033;-72
2022/07/29 07:37:56;;;;;;;0.63;0.63;;;17.60;99.90;;;;;;5038369;28;20044;-72
2022/07/29 07:40:22;;;;;;;2.58;0.82;;;17.60;99.90;;;;;;5039119;28;20478;-72
2022/07/29 07:42:48;;;;;;;2.58;0.85;;;17.60;99.90;;;;;;5021745;28;20064;-72
2022/07/29 07:45:13;;;;;;;2.35;0.98;;;17.60;99.90;;;;;;5040061;28;20033;-74
2022/07/29 07:47:39;;;;;;;0.75;0.75;;;17.70;99.90;;;;;;5040012;28;20041;-72
2022/07/29 07:50:08;;;;;;;1.33;0.82;;;17.70;99.90;;;;;;5038690;28;20061;-72
2022/07/29 07:52:34;;;;;;;2.40;0.93;;;17.70;99.90;;;;;;5020871;28;20057;-72
2022/07/29 07:55:00;;;;;;;1.95;0.88;;;17.70;99.90;;;;;;5039249;28;20491;-72
2022/07/29 07:57:26;;;;;;;1.75;1.20;;;17.60;99.90;;;;;;5039275;28;20132;-73
2022/07/29 07:59:52;;;;;;;1.75;0.80;;;17.70;99.90;;;;;;5038955;28;20454;-73
2022/07/29 08:02:17;;;;;;;0.70;0.70;;;17.70;99.90;;;;;;5039565;28;20555;-74
2022/07/29 08:04:43;;;;;;;0.75;0.65;;;17.70;99.90;;;;;;5023044;28;20098;-74
2022/07/29 08:07:09;;;;;;;1.08;0.70;;;17.70;99.90;;;;;;5038552;28;20049;-74
2022/07/29 08:09:35;;;;;;;1.25;0.82;;;17.70;99.90;;;;;;5039024;28;20079;-72
2022/07/29 08:12:05;;;;;;;0.95;0.60;;;17.80;99.90;;;;;;5039832;28;22356;-74
2022/07/29 08:14:31;;;;;;;1.48;0.85;;;17.80;99.90;;;;;;5047267;28;20102;-73
2022/07/29 08:16:57;;;;;;;1.75;0.85;;;17.80;99.90;;;;;;5061658;28;20084;-72
2022/07/29 08:19:22;;;;;;;1.27;0.77;;;17.90;99.90;;;;;;5049952;28;20126;-75
2022/07/29 08:21:48;;;;;;;0.85;0.70;;;17.90;99.90;;;;;;5042071;28;20659;-76
2022/07/29 08:26:58;;;;;;;2.40;0.90;;;18.00;99.90;;;;;;5062789;28;20486;-77
2022/07/29 08:29:23;;;;;;;2.35;0.73;;;18.10;99.90;;;;;;5063303;28;20040;-74
2022/07/29 08:31:49;;;;;;;1.45;0.70;;;18.20;99.90;;;;;;5063137;28;20149;-74
2022/07/29 08:34:15;;;;;;;1.45;1.35;;;18.20;99.90;;;;;;5060556;28;20041;-75
2022/07/29 08:36:40;;;;;;;2.15;0.82;;;18.30;99.90;;;;;;5044665;28;20033;-74
2022/07/29 08:39:06;;;;;;;2.17;0.73;;;18.40;99.90;;;;;;5052965;28;20433;-72
2022/07/29 08:41:31;;;;;;;0.57;0.45;;;18.40;99.90;;;;;;5041915;28;20040;-75
2022/07/29 08:43:57;;;;;;;1.08;0.88;;;18.40;99.90;;;;;;5039937;28;20427;-80
2022/07/29 08:46:23;;;;;;;5.38;1.30;;;18.40;99.90;;;;;;5041463;28;20107;-79
2022/07/29 08:48:49;;;;;;;1.33;0.77;;;18.50;99.90;;;;;;5042156;28;20037;-76
2022/07/29 08:51:17;;;;;;;0.77;0.40;;;18.50;99.90;;;;;;5040251;28;20510;-78
2022/07/29 08:53:54;;;;;;;0.57;0.57;;;18.50;99.90;;;;;;5031804;28;20052;-78
2022/07/29 08:56:20;;;;;;;1.20;0.60;;;18.60;99.90;;;;;;5032294;28;20522;-78
2022/07/29 08:58:47;;;;;;;1.35;0.90;;;18.60;99.90;;;;;;5042119;28;20102;-77
2022/07/29 09:01:21;;;;;;;0.70;0.70;;;18.60;99.90;;;;;;5042320;28;20056;-76
2022/07/29 09:03:47;;;;;;;2.35;0.85;;;18.60;99.90;;;;;;5024795;28;20043;-78
2022/07/29 09:06:18;;;;;;;0.90;0.88;;;18.60;99.90;;;;;;5023233;28;20045;-74
2022/07/29 09:08:44;;;;;;;1.52;0.60;;;18.60;99.90;;;;;;5042204;28;20037;-73
2022/07/29 09:11:11;;;;;;;1.25;1.15;;;18.70;99.90;;;;;;5042583;28;20052;-72
2022/07/29 09:13:37;;;;;;;1.08;0.80;;;18.70;99.90;;;;;;5052450;28;20450;-75
2022/07/29 09:16:03;;;;;;;0.57;0.45;;;18.70;99.90;;;;;;5056259;28;20032;-74
2022/07/29 09:18:38;;;;;;;2.17;1.20;;;18.70;99.90;;;;;;5043873;28;20041;-75
2022/07/29 09:24:22;;;;;;;0.88;0.82;;;18.70;99.90;;;;;;5048150;28;20518;-76
2022/07/29 09:26:47;;;;;;;1.67;0.70;;;18.80;99.90;;;;;;5004141;28;21446;-75
2022/07/29 09:29:19;;;;;;;0.68;0.65;;;18.80;99.90;;;;;;5038091;28;20849;-75
2022/07/29 09:31:48;;;;;;;2.08;0.93;;;18.80;99.90;;;;;;5023942;28;20105;-84
2022/07/29 09:34:15;;;;;;;1.10;0.70;;;18.80;99.90;;;;;;5046200;28;20037;-76
2022/07/29 09:36:48;;;;;;;1.95;0.95;;;18.80;99.90;;;;;;5059933;28;20145;-75
2022/07/29 09:39:25;;;;;;;1.55;0.98;;;18.80;99.90;;;;;;5060320;28;20074;-76
2022/07/29 09:41:53;;;;;;;2.13;0.80;;;18.80;99.90;;;;;;5027685;28;20148;-80
2022/07/29 09:44:20;;;;;;;1.10;0.73;;;18.80;99.90;;;;;;5044286;28;20044;-80
2022/07/29 09:47:05;;;;;;;1.40;0.85;;;18.90;99.90;;;;;;5055647;28;20041;-78
2022/07/29 09:49:35;;;;;;;1.17;1.02;;;18.90;99.90;;;;;;5047852;28;20845;-80
2022/07/29 09:52:07;;;;;;;1.30;1.17;;;19.00;99.90;;;;;;5038915;28;20115;-78
2022/07/29 09:54:36;;;;;;;1.00;0.90;;;19.00;99.90;;;;;;5057270;28;20134;-81
2022/07/29 09:57:04;;;;;;;1.52;0.70;;;19.10;99.90;;;;;;5028098;28;20101;-79
2022/07/29 09:59:30;;;;;;;1.55;1.25;;;19.10;99.90;;;;;;5040474;28;20056;-78
2022/07/29 10:01:56;;;;;;;3.88;1.35;;;19.10;99.90;;;;;;5041202;28;20037;-78
2022/07/29 10:04:21;;;;;;;0.82;0.82;;;19.10;99.90;;;;;;5041194;28;20089;-77
2022/07/29 10:06:58;;;;;;;2.75;1.08;;;19.10;99.90;;;;;;5050447;28;20534;-78
2022/07/29 10:09:25;;;;;;;1.90;1.25;;;19.10;99.90;;;;;;5029550;28;20052;-78
2022/07/29 10:12:13;;;;;;;5.13;0.95;;;19.10;99.90;;;;;;5047344;28;20206;-79
2022/07/29 10:14:39;;;;;;;1.85;0.85;;;19.10;99.90;;;;;;5040914;28;20518;-78
2022/07/29 10:17:06;;;;;;;1.55;1.45;;;19.10;99.90;;;;;;5059601;28;20043;-79
2022/07/29 10:19:33;;;;;;;1.20;0.90;;;19.10;99.90;;;;;;5061100;28;20128;-78
2022/07/29 10:22:01;;;;;;;1.20;0.73;;;19.10;99.90;;;;;;5054306;28;20095;-78
2022/07/29 10:24:29;;;;;;;1.60;0.88;;;19.10;99.90;;;;;;5043915;28;20462;-80
2022/07/29 10:26:56;;;;;;;1.85;0.98;;;19.10;99.90;;;;;;5037965;28;20037;-85
2022/07/29 10:29:23;;;;;;;1.85;0.80;;;19.00;99.90;;;;;;5040313;28;20592;-83
2022/07/29 10:32:14;;;;;;;1.50;1.23;;;19.10;99.90;;;;;;5041601;28;20538;-84
2022/07/29 10:35:24;;;;;;;2.40;0.90;;;19.00;99.90;;;;;;5055802;28;20043;-80
2022/07/29 10:38:09;;;;;;;2.45;1.73;;;19.00;99.90;;;;;;5045721;28;20044;-84
2022/07/29 10:43:32;;;;;;;2.10;1.23;;;19.10;99.90;;;;;;5045521;28;20048;-83
2022/07/29 10:46:00;;;;;;;1.35;0.95;;;19.10;99.90;;;;;;5023798;28;20120;-86
2022/07/29 10:48:26;;;;;;;0.80;0.70;;;19.10;99.90;;;;;;5040021;28;20071;-81
2022/07/29 10:50:58;;;;;;;1.92;1.33;;;19.20;99.90;;;;;;5030677;28;20043;-85
2022/07/29 10:53:24;;;;;;;;;;;19.20;99.90;;;;;;5055013;28;20028;-81
2022/07/29 10:55:52;;;;;;;2.78;1.20;;;19.30;99.90;;;;;;5041938;28;19928;-79
2022/07/29 10:58:23;;;;;;;2.42;1.27;;;19.30;99.90;;;;;;5040153;28;20059;-79
2022/07/29 11:00:54;;;;;;;1.75;1.65;;;19.40;99.90;;;;;;5033596;28;20041;-80
2022/07/29 11:03:46;;;;;;;1.63;0.85;;;19.40;99.90;;;;;;5028289;28;20037;-79
2022/07/29 11:06:12;;;;;;;1.98;1.48;;;19.50;99.90;;;;;;5022158;28;20502;-81
2022/07/29 11:08:38;;;;;;;5.47;1.33;;;19.50;99.90;;;;;;5039445;28;20037;-80
2022/07/29 11:11:19;;;;;;;1.40;1.30;;;19.50;99.90;;;;;;5047082;28;20513;-77
2022/07/29 11:13:47;;;;;;;1.75;1.60;;;19.50;99.90;;;;;;5021694;28;20049;-85
2022/07/29 11:16:14;;;;;;;2.30;1.00;;;19.60;99.90;;;;;;5040783;28;20044;-82
2022/07/29 11:19:22;;;;;;;3.38;0.95;;;19.60;99.90;;;;;;5041344;28;20372;-82
2022/07/29 11:21:49;;;;;;;1.88;0.70;;;19.50;99.90;;;;;;5013921;28;20064;-82
2022/07/29 11:24:28;;;;;;;1.00;0.90;;;19.50;99.90;;;;;;5039139;28;20041;-83
2022/07/29 11:27:08;;;;;;;4.07;0.73;;;19.50;99.90;;;;;;5038836;28;20048;-81
2022/07/29 11:29:40;;;;;;;3.08;1.73;;;19.60;99.90;;;;;;5021688;28;20127;-81
2022/07/29 11:32:10;;;;;;;;;;;19.60;99.90;;;;;;5042848;28;20041;-83
2022/07/29 11:34:40;;;;;;;6.43;1.00;;;19.60;99.90;;;;;;5038529;28;20429;-82
2022/07/29 11:37:14;;;;;;;2.15;1.35;;;19.60;99.90;;;;;;5039185;28;20395;-82
2022/07/29 11:39:52;;;;;;;3.00;1.23;;;19.60;99.90;;;;;;5039292;28;20408;-81
2022/07/29 11:42:21;;;;;;;2.15;1.10;;;19.60;99.90;;;;;;5020541;28;20060;-81
2022/07/29 11:45:07;;;;;;;7.18;2.55;;;19.60;99.90;;;;;;5037767;28;20337;-79
2022/07/29 11:47:39;;;;;;;0.80;0.80;;;19.70;99.90;;;;;;5037699;28;20044;-78
2022/07/29 11:50:09;;;;;;;2.45;1.20;;;19.60;99.90;;;;;;5037956;28;20497;-78
2022/07/29 11:52:46;;;;;;;2.72;1.40;;;19.60;99.90;;;;;;5037394;28;20049;-79
2022/07/29 11:55:18;;;;;;;1.80;1.15;;;19.70;99.90;;;;;;5020838;28;20056;-79
2022/07/29 11:57:53;;;;;;;;;;;19.70;99.90;;;;;;5039210;28;20044;-78
2022/07/29 12:00:23;;;;;;;1.70;1.23;;;19.70;99.90;;;;;;5003765;28;19920;-79
2022/07/29 12:02:49;;;;;;;1.17;1.08;;;19.70;99.90;;;;;;5038802;28;20214;-79
2022/07/29 12:05:15;;;;;;;1.02;0.93;;;19.70;99.90;;;;;;5038658;28;20045;-79
2022/07/29 12:07:41;;;;;;;2.05;1.60;;;19.80;99.90;;;;;;5020209;28;20041;-79
2022/07/29 12:10:07;;;;;;;1.52;1.00;;;19.80;99.90;;;;;;5020551;28;20060;-78
2022/07/29 12:12:34;;;;;;;2.20;1.02;;;19.80;99.90;;;;;;5019679;28;20064;-78
2022/07/29 12:15:13;;;;;;;1.73;1.00;;;19.80;99.90;;;;;;5038107;28;20542;-78
2022/07/29 12:17:39;;;;;;;2.40;2.17;;;19.90;99.90;;;;;;5038600;28;20045;-78
2022/07/29 12:20:05;;;;;;;2.30;1.30;;;20.00;99.90;;;;;;5038246;28;20045;-78
2022/07/29 12:22:37;;;;;;;2.15;1.25;;;20.00;99.90;;;;;;5019714;28;20406;-79
2022/07/29 12:25:05;;;;;;;6.75;1.88;;;20.00;99.90;;;;;;5038133;28;20065;-78
2022/07/29 12:27:31;;;;;;;2.15;1.33;;;20.10;99.90;;;;;;5038694;28;20037;-78
2022/07/29 12:30:04;;;;;;;2.70;1.50;;;20.10;99.90;;;;;;5038695;28;20140;-79
2022/07/29 12:32:47;;;;;;;1.08;0.90;;;20.20;99.90;;;;;;5019961;28;20648;-78
2022/07/29 12:35:15;;;;;;;1.52;1.05;;;20.30;99.90;;;;;;5020312;28;20044;-78
2022/07/29 12:37:42;;;;;;;1.40;1.00;;;20.30;99.90;;;;;;5036556;28;20068;-79
2022/07/29 12:40:10;;;;;;;5.75;1.75;;;20.30;99.90;;;;;;5037994;28;21028;-78
2022/07/29 12:42:37;;;;;;;1.65;1.00;;;20.40;99.90;;;;;;5038088;28;20574;-79
2022/07/29 12:45:04;;;;;;;6.22;1.23;;;20.50;99.90;;;;;;5037649;28;20376;-79
2022/07/29 12:47:30;;;;;;;1.67;1.00;;;20.50;99.90;;;;;;5037902;28;20091;-79
2022/07/29 12:50:10;;;;;;;1.42;1.33;;;20.60;99.90;;;;;;5038127;28;20419;-79
2022/07/29 12:52:36;;;;;;;2.75;1.00;;;20.60;99.90;;;;;;5037310;28;20055;-78
2022/07/29 12:55:02;;;;;;;1.50;1.40;;;20.70;99.90;;;;;;5019856;28;20491;-80
2022/07/29 12:57:29;;;;;;;1.95;1.60;;;20.70;99.90;;;;;;5037695;28;20033;-79
2022/07/29 13:00:03;;;;;;;1.45;1.35;;;20.70;99.90;;;;;;5038094;28;20068;-78
2022/07/29 13:02:28;;;;;;;3.90;1.70;;;20.80;99.90;;;;;;5037957;28;20049;-79
2022/07/29 13:04:59;;;;;;;2.35;1.25;;;20.90;99.90;;;;;;5023220;28;20043;-79
2022/07/29 13:07:26;;;;;;;10.95;1.35;;;21.00;99.90;;;;;;5040458;28;20044;-79